Antalya, Turkey

9:49 AM EEST on July 28, 2016 (GMT +0300)
Antalya | | Change Station

Elev 174 ft 36.90 °N, 30.80 °E | Updated 29 minutes ago

Clear
Clear
90 °F
Feels Like 96 °F
N
4
Wind Variable Wind from SSE

Today
High -- | Low -- °F
--% Chance of Precip.
Yesterday
High -- | Low -- °F
Precip. -- in
Pressure 29.68 in
Visibility -9999.0 miles
Clouds
Heat Index 96 °F
Dew Point 72 °F
Humidity 55%
Rainfall 0.00 in
Snow Depth Not available.
5:59 AM 8:07 PM
Waning Crescent, 35% visible
METAR LTAI 280620Z 16003KT 100V200 CAVOK 32/22 Q1005 NOSIG RMK RWY18C VRB02KT RWY36R 17004KT 100V240 RWY18L 11003KT 030V160
Pressure 29.68 in
Visibility -9999.0 miles
Clouds
Heat Index 96 °F
Dew Point 72 °F
Humidity 55%
Rainfall 0.00 in
Snow Depth Not available.
5:59 AM 8:07 PM
Waning Crescent, 35% visible
METAR LTAI 280620Z 16003KT 100V200 CAVOK 32/22 Q1005 NOSIG RMK RWY18C VRB02KT RWY36R 17004KT 100V240 RWY18L 11003KT 030V160

10-Day Weather Forecast

×

Almanac

Astronomy

Jul. 28, 2016 Rise Set
Actual Time
Civil Twilight
Nautical Twilight
Astronomical Twilight
Moon
Length of Visible Light
Length of Day
Tomorrow will be .
, % of the Moon is Illuminated

Today's Extremes

Country Highs Country Lows

Community

WunderPhotos

Upload Photos

1,928,064 photos uploaded!

WunderBlog® & News

Nearby

Air Quality

  Air Quality AQ Index Pollutant
Not available.

Snow Depth

Station Depth Elevation

Earthquake Activity

City Distance Mag. Time & Date
Minimum magnitude displayed is 2.5.

Coastal Water Temperatures

Place Temperature

Stations

Nearby Weather Stations

Station Location Temp. Windchill Dew Point Humidity Wind Precip. Elev Updated Type